createdAt,value
2023-01-27T00:00:34.981Z,55.92
2023-01-27T00:03:36.770Z,55.94
2023-01-27T00:06:38.449Z,55.87
2023-01-27T00:09:42.071Z,55.77
2023-01-27T00:13:03.617Z,55.83
2023-01-27T00:16:05.980Z,55.81
2023-01-27T00:19:07.734Z,55.82
2023-01-27T00:22:35.932Z,55.92
2023-01-27T00:25:37.757Z,55.75
2023-01-27T00:28:40.771Z,55.78
2023-01-27T00:32:00.980Z,55.76
2023-01-27T00:35:02.652Z,55.73
2023-01-27T00:38:04.380Z,55.80
2023-01-27T00:41:20.021Z,55.74
2023-01-27T00:44:23.933Z,55.78
2023-01-27T00:47:25.627Z,55.76
2023-01-27T00:50:27.409Z,55.73
2023-01-27T00:53:29.588Z,55.64
2023-01-27T00:56:31.569Z,55.69
2023-01-27T00:59:33.250Z,55.67
2023-01-27T01:02:34.920Z,55.68
2023-01-27T01:05:36.855Z,55.64
2023-01-27T01:08:39.125Z,55.71
2023-01-27T01:11:40.747Z,55.68
2023-01-27T01:14:42.429Z,55.73
2023-01-27T01:17:44.087Z,55.68
2023-01-27T01:20:47.401Z,55.76
2023-01-27T01:23:49.230Z,55.69
2023-01-27T01:26:51.114Z,55.74
2023-01-27T01:29:53.283Z,55.73
2023-01-27T01:32:55.352Z,55.77
2023-01-27T01:35:57.126Z,55.74
2023-01-27T01:38:58.889Z,55.85
2023-01-27T01:42:00.953Z,55.90
2023-01-27T01:45:34.083Z,55.81
2023-01-27T01:48:38.139Z,55.97
2023-01-27T01:51:43.939Z,55.91
2023-01-27T01:54:54.586Z,55.99
2023-01-27T01:58:01.269Z,55.96
2023-01-27T02:01:04.899Z,55.98
2023-01-27T02:04:12.398Z,55.95
2023-01-27T02:07:21.642Z,56.00
2023-01-27T02:10:26.160Z,56.01
2023-01-27T02:13:27.905Z,56.01
2023-01-27T02:16:30.396Z,55.94
2023-01-27T02:20:08.496Z,55.96
2023-01-27T02:23:34.707Z,56.04
2023-01-27T02:26:40.785Z,56.05
2023-01-27T02:29:42.661Z,55.92
2023-01-27T02:32:44.674Z,55.92
2023-01-27T02:36:00.261Z,55.88
2023-01-27T02:39:03.602Z,55.91
2023-01-27T02:42:08.127Z,55.84
2023-01-27T02:45:10.301Z,55.85
2023-01-27T02:48:12.555Z,55.85
2023-01-27T02:51:14.438Z,55.82
2023-01-27T02:54:18.044Z,55.78
2023-01-27T02:57:20.315Z,55.80
2023-01-27T03:00:33.783Z,55.80
2023-01-27T03:03:35.827Z,55.77
2023-01-27T03:06:38.811Z,55.70
2023-01-27T03:09:40.574Z,55.66
2023-01-27T03:12:44.923Z,55.62
2023-01-27T03:16:06.550Z,55.64
2023-01-27T03:19:08.393Z,55.64
2023-01-27T03:22:10.968Z,55.54
2023-01-27T03:25:13.638Z,55.62
2023-01-27T03:28:16.564Z,55.57
2023-01-27T03:31:41.130Z,55.55
2023-01-27T03:34:44.307Z,55.54
2023-01-27T03:38:10.577Z,55.56
2023-01-27T03:41:31.277Z,55.58
2023-01-27T03:44:51.685Z,55.43
2023-01-27T03:47:53.438Z,55.47
2023-01-27T03:50:59.193Z,55.40
2023-01-27T03:54:01.089Z,55.37
2023-01-27T03:57:06.225Z,55.47
2023-01-27T04:00:09.830Z,55.40
2023-01-27T04:03:33.392Z,55.41
2023-01-27T04:06:59.009Z,55.36
2023-01-27T04:10:00.806Z,55.40
2023-01-27T04:13:02.523Z,55.37
2023-01-27T04:16:07.115Z,55.37
2023-01-27T04:19:11.358Z,55.34
2023-01-27T04:22:15.924Z,55.29
2023-01-27T04:25:17.930Z,55.31
2023-01-27T04:28:37.365Z,55.35
2023-01-27T04:31:42.729Z,55.28
2023-01-27T04:34:44.756Z,55.33
2023-01-27T04:37:46.432Z,55.43
2023-01-27T04:40:48.415Z,55.27
2023-01-27T04:43:50.145Z,55.26
2023-01-27T04:46:52.551Z,55.12
2023-01-27T04:49:54.293Z,55.12
2023-01-27T04:52:56.059Z,55.15
2023-01-27T04:56:03.927Z,55.14
2023-01-27T04:59:07.723Z,55.14
2023-01-27T05:02:11.910Z,55.19
2023-01-27T05:05:14.137Z,55.17
2023-01-27T05:08:16.242Z,55.15
2023-01-27T05:11:18.294Z,55.06
2023-01-27T05:14:20.143Z,54.94
2023-01-27T05:17:21.841Z,54.97
2023-01-27T05:20:23.784Z,54.93
2023-01-27T05:23:37.346Z,54.86
2023-01-27T05:26:39.387Z,54.78
2023-01-27T05:29:41.423Z,54.79
2023-01-27T05:32:43.116Z,54.73
2023-01-27T05:35:44.881Z,54.79
2023-01-27T05:38:47.211Z,54.68
2023-01-27T05:41:49.176Z,54.66
2023-01-27T05:44:50.983Z,54.66
2023-01-27T05:47:52.673Z,54.55
2023-01-27T05:50:55.948Z,54.58
2023-01-27T05:53:57.660Z,54.54
2023-01-27T05:56:59.341Z,54.54
2023-01-27T06:00:01.035Z,54.45
2023-01-27T06:03:02.790Z,54.43
2023-01-27T06:06:04.759Z,54.33
2023-01-27T06:09:06.539Z,54.37
2023-01-27T06:12:08.246Z,54.35
2023-01-27T06:15:10.777Z,54.19
2023-01-27T06:18:13.965Z,54.16
2023-01-27T06:21:16.242Z,54.14
2023-01-27T06:24:18.016Z,54.19
2023-01-27T06:27:19.645Z,54.04
2023-01-27T06:30:21.405Z,54.15
2023-01-27T06:33:23.479Z,54.05
2023-01-27T06:36:25.236Z,54.05
2023-01-27T06:39:26.832Z,54.04
2023-01-27T06:42:28.509Z,54.05
2023-01-27T06:45:30.464Z,54.03
2023-01-27T06:48:32.073Z,54.04
2023-01-27T06:51:33.704Z,54.07
2023-01-27T06:54:35.315Z,53.99
2023-01-27T06:57:37.056Z,53.97
2023-01-27T07:00:40.068Z,53.97
2023-01-27T07:03:43.677Z,54.01
2023-01-27T07:06:46.354Z,54.02
2023-01-27T07:09:52.613Z,54.02
2023-01-27T07:13:05.426Z,53.94
2023-01-27T07:16:07.728Z,54.03
2023-01-27T07:19:12.647Z,54.01
2023-01-27T07:22:14.284Z,53.98
2023-01-27T07:25:16.486Z,53.91
2023-01-27T07:28:18.145Z,54.03
2023-01-27T07:31:20.095Z,53.97
2023-01-27T07:34:22.078Z,54.00
2023-01-27T07:37:23.724Z,53.99
2023-01-27T07:40:25.582Z,54.02
2023-01-27T07:43:27.347Z,53.95
2023-01-27T07:46:29.210Z,53.88
2023-01-27T07:49:30.871Z,53.93
2023-01-27T07:52:32.631Z,53.86
2023-01-27T07:55:34.398Z,53.89
2023-01-27T07:58:36.163Z,53.85
2023-01-27T08:01:37.975Z,53.84
2023-01-27T08:04:52.167Z,53.76
2023-01-27T08:07:58.486Z,53.83
2023-01-27T08:11:05.460Z,53.76
2023-01-27T08:14:07.126Z,53.85
2023-01-27T08:17:08.777Z,53.89
2023-01-27T08:20:11.554Z,53.87
2023-01-27T08:23:13.357Z,53.79
2023-01-27T08:26:15.087Z,53.71
2023-01-27T08:29:16.728Z,53.72
2023-01-27T08:32:18.429Z,53.70
2023-01-27T08:35:20.165Z,53.65
2023-01-27T08:38:21.948Z,53.62
2023-01-27T08:41:25.874Z,53.58
2023-01-27T08:44:30.325Z,53.58
2023-01-27T08:47:31.899Z,53.49
2023-01-27T08:50:34.218Z,53.52
2023-01-27T08:53:37.190Z,53.34
2023-01-27T08:56:38.882Z,53.31
2023-01-27T08:59:40.543Z,53.18
2023-01-27T09:02:42.448Z,53.14
2023-01-27T09:05:44.429Z,53.10
2023-01-27T09:09:06.151Z,52.95
2023-01-27T09:12:08.002Z,52.88
2023-01-27T09:15:11.028Z,52.79
2023-01-27T09:18:12.764Z,52.72
2023-01-27T09:21:14.520Z,52.67
2023-01-27T09:24:18.128Z,52.62
2023-01-27T09:27:33.313Z,52.57
2023-01-27T09:30:41.183Z,52.46
2023-01-27T09:33:43.085Z,52.48
2023-01-27T09:36:47.621Z,52.44
2023-01-27T09:39:52.408Z,52.43
2023-01-27T09:43:15.658Z,52.51
2023-01-27T09:46:50.866Z,52.29
2023-01-27T09:50:14.809Z,52.27
2023-01-27T09:53:22.841Z,52.08
2023-01-27T09:56:49.173Z,52.07
2023-01-27T10:00:10.898Z,51.94
2023-01-27T10:03:43.536Z,52.02
2023-01-27T10:06:45.265Z,52.03
2023-01-27T10:09:58.187Z,51.81
2023-01-27T10:13:10.818Z,51.78
2023-01-27T10:16:38.371Z,51.71
2023-01-27T10:19:50.487Z,51.54
2023-01-27T10:23:02.672Z,51.43
2023-01-27T10:26:28.806Z,51.33
2023-01-27T10:29:39.327Z,51.20
2023-01-27T10:32:40.940Z,51.22
2023-01-27T10:35:53.444Z,51.12
2023-01-27T10:39:07.703Z,50.87
2023-01-27T10:42:12.125Z,50.83
2023-01-27T10:45:20.231Z,50.54
2023-01-27T10:48:37.335Z,50.48
2023-01-27T10:51:39.546Z,50.31
2023-01-27T10:54:47.843Z,50.30
2023-01-27T10:57:57.677Z,50.22
2023-01-27T11:04:43.142Z,50.18
2023-01-27T11:07:49.895Z,49.98
2023-01-27T11:11:22.873Z,49.97
2023-01-27T11:14:32.439Z,49.87
2023-01-27T11:18:09.347Z,49.79
2023-01-27T11:21:15.620Z,49.64
2023-01-27T11:24:28.968Z,49.32
2023-01-27T11:27:41.266Z,49.18
2023-01-27T11:31:03.312Z,49.26
2023-01-27T11:34:16.722Z,49.22
2023-01-27T11:37:21.318Z,49.16
2023-01-27T11:40:28.311Z,48.67
2023-01-27T11:43:30.083Z,48.46
2023-01-27T11:46:32.643Z,48.23
2023-01-27T11:49:53.389Z,48.26
2023-01-27T11:53:15.239Z,47.97
2023-01-27T11:56:21.685Z,47.91
2023-01-27T11:59:36.803Z,47.73
2023-01-27T12:02:44.877Z,47.35
2023-01-27T12:05:54.601Z,47.36
2023-01-27T12:08:56.324Z,47.34
2023-01-27T12:12:22.894Z,47.08
2023-01-27T12:15:27.226Z,46.92
2023-01-27T12:18:32.263Z,46.76
2023-01-27T12:21:38.450Z,46.63
2023-01-27T12:24:42.430Z,46.55
2023-01-27T12:27:55.059Z,46.37
2023-01-27T12:31:04.605Z,45.93
2023-01-27T12:34:13.152Z,45.81
2023-01-27T12:37:31.274Z,45.66
2023-01-27T12:40:36.110Z,45.54
2023-01-27T12:44:09.368Z,45.55
2023-01-27T12:47:28.064Z,45.32
2023-01-27T12:50:34.980Z,45.13
2023-01-27T12:53:36.704Z,45.00
2023-01-27T12:56:38.869Z,44.87
2023-01-27T12:59:49.605Z,44.85
2023-01-27T13:02:53.966Z,44.87
2023-01-27T13:05:57.999Z,44.94
2023-01-27T13:09:00.389Z,44.90
2023-01-27T13:12:09.912Z,44.77
2023-01-27T13:15:16.709Z,44.47
2023-01-27T13:18:23.385Z,44.62
2023-01-27T13:21:32.876Z,44.33
2023-01-27T13:24:42.332Z,44.02
2023-01-27T13:27:45.503Z,43.81
2023-01-27T13:30:52.459Z,43.72
2023-01-27T13:34:06.313Z,43.62
2023-01-27T13:37:18.657Z,43.58
2023-01-27T13:40:43.561Z,43.83
2023-01-27T13:43:55.701Z,43.42
2023-01-27T13:47:02.832Z,43.48
2023-01-27T13:50:21.977Z,43.34
2023-01-27T13:53:23.665Z,43.19
2023-01-27T13:56:47.077Z,43.35
2023-01-27T14:00:04.526Z,43.37
2023-01-27T14:03:36.436Z,43.39
2023-01-27T14:07:23.454Z,43.28
2023-01-27T14:10:35.403Z,42.96
2023-01-27T14:13:56.133Z,42.96
2023-01-27T14:17:16.804Z,42.86
2023-01-27T14:20:24.740Z,42.72
2023-01-27T14:23:47.148Z,42.86
2023-01-27T14:27:10.032Z,42.91
2023-01-27T14:30:26.322Z,43.00
2023-01-27T14:33:53.236Z,43.13
2023-01-27T14:36:59.962Z,43.08
2023-01-27T14:40:18.150Z,43.02
2023-01-27T14:43:34.674Z,43.15
2023-01-27T14:46:49.933Z,43.22
2023-01-27T14:49:54.654Z,43.34
2023-01-27T14:53:01.705Z,43.44
2023-01-27T14:56:29.949Z,43.27
2023-01-27T14:59:50.645Z,43.45
2023-01-27T15:03:16.996Z,43.68
2023-01-27T15:06:29.885Z,43.75
2023-01-27T15:09:49.713Z,43.83
2023-01-27T15:13:10.184Z,44.01
2023-01-27T15:16:27.018Z,43.97
2023-01-27T15:19:41.391Z,44.06
2023-01-27T15:22:58.774Z,44.14
2023-01-27T15:26:02.346Z,44.29
2023-01-27T15:29:04.791Z,44.37
2023-01-27T15:32:15.760Z,44.44
2023-01-27T15:35:28.114Z,44.58
2023-01-27T15:38:33.236Z,44.74
2023-01-27T15:42:04.107Z,44.83
2023-01-27T15:45:12.195Z,45.08
2023-01-27T15:48:23.396Z,45.18
2023-01-27T15:51:25.059Z,45.47
2023-01-27T15:54:32.701Z,45.57
2023-01-27T15:57:39.239Z,45.82
2023-01-27T16:00:42.821Z,46.13
2023-01-27T16:03:48.240Z,46.39
2023-01-27T16:06:52.296Z,46.69
2023-01-27T16:09:54.500Z,46.90
2023-01-27T16:13:14.908Z,47.21
2023-01-27T16:16:19.417Z,47.39
2023-01-27T16:19:28.885Z,47.74
2023-01-27T16:22:32.458Z,47.87
2023-01-27T16:25:46.211Z,48.05
2023-01-27T16:28:50.043Z,48.41
2023-01-27T16:31:54.547Z,48.47
2023-01-27T16:34:58.455Z,48.77
2023-01-27T16:38:05.955Z,48.95
2023-01-27T16:41:17.523Z,49.15
2023-01-27T16:44:26.015Z,49.36
2023-01-27T16:47:38.493Z,49.61
2023-01-27T16:50:42.289Z,49.84
2023-01-27T16:53:46.657Z,50.01
2023-01-27T16:56:51.502Z,50.24
2023-01-27T16:59:54.105Z,50.44
2023-01-27T17:02:59.515Z,50.56
2023-01-27T17:06:03.251Z,50.85
2023-01-27T17:09:20.155Z,50.87
2023-01-27T17:12:32.924Z,51.07
2023-01-27T17:15:37.335Z,51.39
2023-01-27T17:18:51.829Z,51.52
2023-01-27T17:22:22.762Z,51.74
2023-01-27T17:25:29.575Z,52.09
2023-01-27T17:28:31.507Z,52.11
2023-01-27T17:31:34.784Z,52.18
2023-01-27T17:34:38.441Z,52.39
2023-01-27T17:37:44.749Z,52.65
2023-01-27T17:40:48.531Z,52.66
2023-01-27T17:43:50.168Z,52.85
2023-01-27T17:46:52.297Z,53.11
2023-01-27T17:49:53.928Z,53.08
2023-01-27T17:52:57.246Z,53.31
2023-01-27T17:55:59.623Z,53.37
2023-01-27T17:59:22.171Z,53.54
2023-01-27T18:02:27.844Z,53.80
2023-01-27T18:05:32.251Z,53.93
2023-01-27T18:08:35.370Z,54.19
2023-01-27T18:11:39.259Z,54.18
2023-01-27T18:14:40.883Z,54.24
2023-01-27T18:17:42.807Z,54.28
2023-01-27T18:20:45.030Z,54.43
2023-01-27T18:23:49.482Z,54.43
2023-01-27T18:26:51.250Z,54.68
2023-01-27T18:29:56.046Z,54.80
2023-01-27T18:33:02.410Z,54.92
2023-01-27T18:36:04.980Z,55.20
2023-01-27T18:39:33.574Z,55.25
2023-01-27T18:42:35.279Z,55.42
2023-01-27T18:45:36.937Z,55.60
2023-01-27T18:48:40.087Z,55.75
2023-01-27T18:51:41.771Z,56.04
2023-01-27T18:54:44.388Z,56.59
2023-01-27T18:57:48.808Z,56.65
2023-01-27T19:00:54.388Z,56.88
2023-01-27T19:03:58.281Z,57.02
2023-01-27T19:07:00.381Z,57.01
2023-01-27T19:10:02.229Z,56.99
2023-01-27T19:13:04.522Z,57.01
2023-01-27T19:16:13.683Z,56.99
2023-01-27T19:19:15.334Z,56.90
2023-01-27T19:22:18.697Z,56.96
2023-01-27T19:25:21.551Z,57.06
2023-01-27T19:28:31.350Z,57.00
2023-01-27T19:31:33.383Z,57.05
2023-01-27T19:34:35.139Z,57.07
2023-01-27T19:37:36.791Z,57.13
2023-01-27T19:40:38.615Z,57.10
2023-01-27T19:43:41.977Z,57.13
2023-01-27T19:46:44.531Z,57.07
2023-01-27T19:49:46.301Z,57.30
2023-01-27T19:52:48.467Z,57.24
2023-01-27T19:55:50.457Z,57.49
2023-01-27T19:58:53.666Z,57.53
2023-01-27T20:01:56.965Z,57.68
2023-01-27T20:04:59.032Z,57.76
2023-01-27T20:08:00.715Z,57.93
2023-01-27T20:11:02.732Z,57.88
2023-01-27T20:14:07.943Z,58.02
2023-01-27T20:17:09.632Z,58.04
2023-01-27T20:20:11.803Z,58.22
2023-01-27T20:23:15.524Z,58.26
2023-01-27T20:26:22.319Z,58.69
2023-01-27T20:29:25.183Z,59.08
2023-01-27T20:32:27.956Z,59.45
2023-01-27T20:35:30.058Z,59.69
2023-01-27T20:38:31.784Z,59.76
2023-01-27T20:41:33.540Z,59.86
2023-01-27T20:44:36.150Z,59.89
2023-01-27T20:47:38.417Z,59.88
2023-01-27T20:50:40.080Z,59.99
2023-01-27T20:53:46.225Z,59.90
2023-01-27T20:56:47.906Z,59.90
2023-01-27T20:59:49.635Z,59.84
2023-01-27T21:02:51.331Z,59.66
2023-01-27T21:05:52.924Z,59.99
2023-01-27T21:08:54.972Z,59.92
2023-01-27T21:11:56.609Z,60.12
2023-01-27T21:14:58.367Z,60.14
2023-01-27T21:18:00.340Z,60.24
2023-01-27T21:21:04.143Z,60.21
2023-01-27T21:24:06.781Z,60.23
2023-01-27T21:27:08.667Z,60.39
2023-01-27T21:30:11.832Z,60.61
2023-01-27T21:33:13.652Z,60.71
2023-01-27T21:36:15.336Z,61.10
2023-01-27T21:39:17.094Z,61.15
2023-01-27T21:42:18.788Z,61.10
2023-01-27T21:45:21.016Z,61.06
2023-01-27T21:48:22.666Z,60.92
2023-01-27T21:51:24.449Z,60.64
2023-01-27T21:54:26.189Z,60.59
2023-01-27T21:57:28.058Z,60.82
2023-01-27T22:00:29.943Z,60.65
2023-01-27T22:03:31.789Z,60.41
2023-01-27T22:06:33.390Z,60.44
2023-01-27T22:09:35.011Z,60.36
2023-01-27T22:12:36.865Z,60.55
2023-01-27T22:15:38.526Z,60.51
2023-01-27T22:18:40.192Z,60.51
2023-01-27T22:21:41.813Z,60.58
2023-01-27T22:24:44.200Z,60.61
2023-01-27T22:27:46.215Z,60.55
2023-01-27T22:30:47.892Z,60.75
2023-01-27T22:33:49.616Z,60.71
2023-01-27T22:36:51.977Z,60.80
2023-01-27T22:39:53.625Z,60.66
2023-01-27T22:42:55.288Z,60.61
2023-01-27T22:46:01.196Z,60.71
2023-01-27T22:49:02.984Z,60.66
2023-01-27T22:52:04.603Z,60.79
2023-01-27T22:55:08.018Z,60.88
2023-01-27T22:58:09.707Z,60.85
2023-01-27T23:01:11.519Z,60.59
2023-01-27T23:04:14.511Z,60.84
2023-01-27T23:07:16.130Z,60.75
2023-01-27T23:10:17.927Z,60.88
2023-01-27T23:13:20.496Z,60.72
2023-01-27T23:16:23.482Z,60.83
2023-01-27T23:19:25.383Z,60.91
2023-01-27T23:22:27.057Z,60.87
2023-01-27T23:25:28.714Z,60.75
2023-01-27T23:28:30.546Z,60.77
2023-01-27T23:31:32.452Z,60.85
2023-01-27T23:34:34.144Z,60.70
2023-01-27T23:37:35.800Z,60.91
2023-01-27T23:40:38.082Z,61.06
2023-01-27T23:43:40.083Z,61.00
2023-01-27T23:46:43.394Z,61.01
2023-01-27T23:49:45.132Z,61.17
2023-01-27T23:52:46.893Z,61.26
2023-01-27T23:55:56.544Z,61.41
2023-01-27T23:58:58.309Z,61.52
